<?xml version='1.0' encoding='UTF-8'?>
<gpx version="1.1" creator="https://www.komoot.de" xmlns="http://www.topografix.com/GPX/1/1" xmlns:xsi="http://www.w3.org/2001/XMLSchema-instance" xsi:schemaLocation="http://www.topografix.com/GPX/1/1 http://www.topografix.com/GPX/1/1/gpx.xsd">
  <metadata>
    <name>c-hike - Potsdam - Templiner See - Caputh</name>
    <author>
      <link href="https://www.komoot.de">
        <text>komoot</text>
        <type>text/html</type>
      </link>
    </author>
  </metadata>
  <wpt lat="52.376325" lon="13.041913">
    <name>Grüner Weg Höhenweg</name>
    <sym>Flag, Blue</sym>
  </wpt>
  <wpt lat="52.361240" lon="13.025294">
    <name>Blick auf den Templiner See nahe dem Waldbad Templin</name>
    <sym>Flag, Blue</sym>
  </wpt>
  <wpt lat="52.350079" lon="13.014235">
    <name>Albert Einsteins Sommerhaus</name>
    <sym>Flag, Blue</sym>
  </wpt>
  <wpt lat="52.351982" lon="13.036001">
    <name>Caputher Heuweg: Abschnitt Richtung Caputh</name>
    <sym>Flag, Blue</sym>
  </wpt>
  <wpt lat="52.360588" lon="13.065814">
    <name>Gipfel des Kleinen Ravensberg und Aussichtsturm</name>
    <sym>Summit</sym>
  </wpt>
  <trk>
    <name>c-hike - Potsdam - Templiner See - Caputh</name>
    <type>hike</type>
    <trkseg>
      <trkpt lat="52.391985" lon="13.067057">
        <ele>34.828738</ele>
        <time>2026-08-22T17:53:28.781Z</time>
      </trkpt>
      <trkpt lat="52.392007" lon="13.066482">
        <ele>34.828738</ele>
        <time>2026-08-22T17:54:04.237Z</time>
      </trkpt>
      <trkpt lat="52.392000" lon="13.065651">
        <ele>34.828738</ele>
        <time>2026-08-22T17:54:55.204Z</time>
      </trkpt>
      <trkpt lat="52.391938" lon="13.064572">
        <ele>34.740615</ele>
        <time>2026-08-22T17:56:01.923Z</time>
      </trkpt>
      <trkpt lat="52.392015" lon="13.064567">
        <ele>34.729676</ele>
        <time>2026-08-22T17:56:09.705Z</time>
      </trkpt>
      <trkpt lat="52.392001" lon="13.064293">
        <ele>34.705858</ele>
        <time>2026-08-22T17:56:26.825Z</time>
      </trkpt>
      <trkpt lat="52.392044" lon="13.064289">
        <ele>34.699744</ele>
        <time>2026-08-22T17:56:31.207Z</time>
      </trkpt>
      <trkpt lat="52.392042" lon="13.064176">
        <ele>34.689952</ele>
        <time>2026-08-22T17:56:38.237Z</time>
      </trkpt>
      <trkpt lat="52.391969" lon="13.064086">
        <ele>34.676984</ele>
        <time>2026-08-22T17:56:47.525Z</time>
      </trkpt>
      <trkpt lat="52.391968" lon="13.063294">
        <ele>34.608377</ele>
        <time>2026-08-22T17:57:35.877Z</time>
      </trkpt>
      <trkpt lat="52.392007" lon="13.063141">
        <ele>34.594014</ele>
        <time>2026-08-22T17:57:46.115Z</time>
      </trkpt>
      <trkpt lat="52.392041" lon="13.062814">
        <ele>34.613896</ele>
        <time>2026-08-22T17:58:06.924Z</time>
      </trkpt>
      <trkpt lat="52.392073" lon="13.062731">
        <ele>34.656155</ele>
        <time>2026-08-22T17:58:13.091Z</time>
      </trkpt>
      <trkpt lat="52.392123" lon="13.062687">
        <ele>34.696187</ele>
        <time>2026-08-22T17:58:19.006Z</time>
      </trkpt>
      <trkpt lat="52.392215" lon="13.062719">
        <ele>34.762525</ele>
        <time>2026-08-22T17:58:28.717Z</time>
      </trkpt>
      <trkpt lat="52.392280" lon="13.062852">
        <ele>34.835870</ele>
        <time>2026-08-22T17:58:39.556Z</time>
      </trkpt>
      <trkpt lat="52.392347" lon="13.063037">
        <ele>34.928470</ele>
        <time>2026-08-22T17:58:53.182Z</time>
      </trkpt>
      <trkpt lat="52.392286" lon="13.063104">
        <ele>34.980268</ele>
        <time>2026-08-22T17:59:00.725Z</time>
      </trkpt>
      <trkpt lat="52.391982" lon="13.063347">
        <ele>35.218847</ele>
        <time>2026-08-22T17:59:35.616Z</time>
      </trkpt>
      <trkpt lat="52.391498" lon="13.063481">
        <ele>35.565076</ele>
        <time>2026-08-22T18:00:26.547Z</time>
      </trkpt>
      <trkpt lat="52.391166" lon="13.063555">
        <ele>35.801410</ele>
        <time>2026-08-22T18:01:00.600Z</time>
      </trkpt>
      <trkpt lat="52.391011" lon="13.063631">
        <ele>36.050138</ele>
        <time>2026-08-22T18:01:16.808Z</time>
      </trkpt>
      <trkpt lat="52.390871" lon="13.063774">
        <ele>36.379826</ele>
        <time>2026-08-22T18:01:33.510Z</time>
      </trkpt>
      <trkpt lat="52.390772" lon="13.063935">
        <ele>36.658571</ele>
        <time>2026-08-22T18:01:47.746Z</time>
      </trkpt>
      <trkpt lat="52.390642" lon="13.064166">
        <ele>37.041801</ele>
        <time>2026-08-22T18:02:07.294Z</time>
      </trkpt>
      <trkpt lat="52.390604" lon="13.064221">
        <ele>37.143125</ele>
        <time>2026-08-22T18:02:12.493Z</time>
      </trkpt>
      <trkpt lat="52.390535" lon="13.064320">
        <ele>37.326408</ele>
        <time>2026-08-22T18:02:21.916Z</time>
      </trkpt>
      <trkpt lat="52.390445" lon="13.064400">
        <ele>37.531028</ele>
        <time>2026-08-22T18:02:32.395Z</time>
      </trkpt>
      <trkpt lat="52.390303" lon="13.064529">
        <ele>37.855502</ele>
        <time>2026-08-22T18:02:49.417Z</time>
      </trkpt>
      <trkpt lat="52.390140" lon="13.064787">
        <ele>38.308406</ele>
        <time>2026-08-22T18:03:13.593Z</time>
      </trkpt>
      <trkpt lat="52.389972" lon="13.065070">
        <ele>38.789915</ele>
        <time>2026-08-22T18:03:40.336Z</time>
      </trkpt>
      <trkpt lat="52.389762" lon="13.065504">
        <ele>39.528146</ele>
        <time>2026-08-22T18:04:18.661Z</time>
      </trkpt>
      <trkpt lat="52.389751" lon="13.065534">
        <ele>39.663745</ele>
        <time>2026-08-22T18:04:21.042Z</time>
      </trkpt>
      <trkpt lat="52.389727" lon="13.065598">
        <ele>39.954782</ele>
        <time>2026-08-22T18:04:26.423Z</time>
      </trkpt>
      <trkpt lat="52.389667" lon="13.065756">
        <ele>40.675784</ele>
        <time>2026-08-22T18:04:39.710Z</time>
      </trkpt>
      <trkpt lat="52.389609" lon="13.065648">
        <ele>41.233170</ele>
        <time>2026-08-22T18:04:50.303Z</time>
      </trkpt>
      <trkpt lat="52.389580" lon="13.065641">
        <ele>41.419267</ele>
        <time>2026-08-22T18:04:53.736Z</time>
      </trkpt>
      <trkpt lat="52.389553" lon="13.065637">
        <ele>41.591378</ele>
        <time>2026-08-22T18:04:56.904Z</time>
      </trkpt>
      <trkpt lat="52.389375" lon="13.065609">
        <ele>42.726623</ele>
        <time>2026-08-22T18:05:18.794Z</time>
      </trkpt>
      <trkpt lat="52.389328" lon="13.065602">
        <ele>43.026237</ele>
        <time>2026-08-22T18:05:24.657Z</time>
      </trkpt>
      <trkpt lat="52.389138" lon="13.065572">
        <ele>44.238057</ele>
        <time>2026-08-22T18:05:48.427Z</time>
      </trkpt>
      <trkpt lat="52.389103" lon="13.065565">
        <ele>44.461907</ele>
        <time>2026-08-22T18:05:52.846Z</time>
      </trkpt>
      <trkpt lat="52.388856" lon="13.065540">
        <ele>46.032999</ele>
        <time>2026-08-22T18:06:23.721Z</time>
      </trkpt>
      <trkpt lat="52.388824" lon="13.065537">
        <ele>46.236486</ele>
        <time>2026-08-22T18:06:27.778Z</time>
      </trkpt>
      <trkpt lat="52.388775" lon="13.065534">
        <ele>46.547784</ele>
        <time>2026-08-22T18:06:33.809Z</time>
      </trkpt>
      <trkpt lat="52.388494" lon="13.065511">
        <ele>48.333963</ele>
        <time>2026-08-22T18:07:09.019Z</time>
      </trkpt>
      <trkpt lat="52.388362" lon="13.065501">
        <ele>49.172873</ele>
        <time>2026-08-22T18:07:25.480Z</time>
      </trkpt>
      <trkpt lat="52.388323" lon="13.065498">
        <ele>49.420741</ele>
        <time>2026-08-22T18:07:30.272Z</time>
      </trkpt>
      <trkpt lat="52.388090" lon="13.065479">
        <ele>50.902636</ele>
        <time>2026-08-22T18:07:58.915Z</time>
      </trkpt>
      <trkpt lat="52.387838" lon="13.065459">
        <ele>52.533459</ele>
        <time>2026-08-22T18:08:30.030Z</time>
      </trkpt>
      <trkpt lat="52.387744" lon="13.065452">
        <ele>53.141696</ele>
        <time>2026-08-22T18:08:41.718Z</time>
      </trkpt>
      <trkpt lat="52.387646" lon="13.065444">
        <ele>53.775948</ele>
        <time>2026-08-22T18:08:53.915Z</time>
      </trkpt>
      <trkpt lat="52.387326" lon="13.065419">
        <ele>55.846759</ele>
        <time>2026-08-22T18:09:33.428Z</time>
      </trkpt>
      <trkpt lat="52.387266" lon="13.065414">
        <ele>56.235097</ele>
        <time>2026-08-22T18:09:40.738Z</time>
      </trkpt>
      <trkpt lat="52.387231" lon="13.065411">
        <ele>56.461644</ele>
        <time>2026-08-22T18:09:45.056Z</time>
      </trkpt>
      <trkpt lat="52.387175" lon="13.065407">
        <ele>56.823969</ele>
        <time>2026-08-22T18:09:51.863Z</time>
      </trkpt>
      <trkpt lat="52.387156" lon="13.065405">
        <ele>56.947037</ele>
        <time>2026-08-22T18:09:54.205Z</time>
      </trkpt>
      <trkpt lat="52.386986" lon="13.065392">
        <ele>58.047103</ele>
        <time>2026-08-22T18:10:14.864Z</time>
      </trkpt>
      <trkpt lat="52.386947" lon="13.065389">
        <ele>58.299475</ele>
        <time>2026-08-22T18:10:19.703Z</time>
      </trkpt>
      <trkpt lat="52.386798" lon="13.065375">
        <ele>59.264184</ele>
        <time>2026-08-22T18:10:37.701Z</time>
      </trkpt>
      <trkpt lat="52.386711" lon="13.065367">
        <ele>59.827432</ele>
        <time>2026-08-22T18:10:48.255Z</time>
      </trkpt>
      <trkpt lat="52.386665" lon="13.065363">
        <ele>60.125192</ele>
        <time>2026-08-22T18:10:53.735Z</time>
      </trkpt>
      <trkpt lat="52.386571" lon="13.065360">
        <ele>60.732917</ele>
        <time>2026-08-22T18:11:05.154Z</time>
      </trkpt>
      <trkpt lat="52.386405" lon="13.065384">
        <ele>61.810101</ele>
        <time>2026-08-22T18:11:25.210Z</time>
      </trkpt>
      <trkpt lat="52.386295" lon="13.065425">
        <ele>62.520933</ele>
        <time>2026-08-22T18:11:38.890Z</time>
      </trkpt>
      <trkpt lat="52.386002" lon="13.065648">
        <ele>63.942418</ele>
        <time>2026-08-22T18:12:18.076Z</time>
      </trkpt>
      <trkpt lat="52.385816" lon="13.065865">
        <ele>64.947083</ele>
        <time>2026-08-22T18:12:45.985Z</time>
      </trkpt>
      <trkpt lat="52.385747" lon="13.065938">
        <ele>65.308472</ele>
        <time>2026-08-22T18:12:55.970Z</time>
      </trkpt>
      <trkpt lat="52.385525" lon="13.065193">
        <ele>67.534867</ele>
        <time>2026-08-22T18:13:55.010Z</time>
      </trkpt>
      <trkpt lat="52.385439" lon="13.064927">
        <ele>68.343238</ele>
        <time>2026-08-22T18:14:15.641Z</time>
      </trkpt>
      <trkpt lat="52.385349" lon="13.064586">
        <ele>69.340942</ele>
        <time>2026-08-22T18:14:40.340Z</time>
      </trkpt>
      <trkpt lat="52.385454" lon="13.063981">
        <ele>70.504827</ele>
        <time>2026-08-22T18:15:21.501Z</time>
      </trkpt>
      <trkpt lat="52.385478" lon="13.063708">
        <ele>70.632242</ele>
        <time>2026-08-22T18:15:39.428Z</time>
      </trkpt>
      <trkpt lat="52.385533" lon="13.063353">
        <ele>70.801438</ele>
        <time>2026-08-22T18:16:03.079Z</time>
      </trkpt>
      <trkpt lat="52.385544" lon="13.062849">
        <ele>71.034412</ele>
        <time>2026-08-22T18:16:34.861Z</time>
      </trkpt>
      <trkpt lat="52.385229" lon="13.062444">
        <ele>71.337473</ele>
        <time>2026-08-22T18:17:15.016Z</time>
      </trkpt>
      <trkpt lat="52.384922" lon="13.062130">
        <ele>71.611395</ele>
        <time>2026-08-22T18:17:51.262Z</time>
      </trkpt>
      <trkpt lat="52.384728" lon="13.061959">
        <ele>71.693559</ele>
        <time>2026-08-22T18:18:13.602Z</time>
      </trkpt>
      <trkpt lat="52.384243" lon="13.061618">
        <ele>70.490146</ele>
        <time>2026-08-22T18:19:06.426Z</time>
      </trkpt>
      <trkpt lat="52.384149" lon="13.061520">
        <ele>70.236094</ele>
        <time>2026-08-22T18:19:18.000Z</time>
      </trkpt>
      <trkpt lat="52.383913" lon="13.061544">
        <ele>69.696938</ele>
        <time>2026-08-22T18:19:42.725Z</time>
      </trkpt>
      <trkpt lat="52.383632" lon="13.061416">
        <ele>69.031905</ele>
        <time>2026-08-22T18:20:13.580Z</time>
      </trkpt>
      <trkpt lat="52.383665" lon="13.061205">
        <ele>68.728758</ele>
        <time>2026-08-22T18:20:27.763Z</time>
      </trkpt>
      <trkpt lat="52.383747" lon="13.060909">
        <ele>68.276355</ele>
        <time>2026-08-22T18:20:49.021Z</time>
      </trkpt>
      <trkpt lat="52.383769" lon="13.060631">
        <ele>67.886210</ele>
        <time>2026-08-22T18:21:07.523Z</time>
      </trkpt>
      <trkpt lat="52.383711" lon="13.060277">
        <ele>66.904154</ele>
        <time>2026-08-22T18:21:31.994Z</time>
      </trkpt>
      <trkpt lat="52.383763" lon="13.059810">
        <ele>65.128911</ele>
        <time>2026-08-22T18:22:04.216Z</time>
      </trkpt>
      <trkpt lat="52.383794" lon="13.059242">
        <ele>62.996313</ele>
        <time>2026-08-22T18:22:43.445Z</time>
      </trkpt>
      <trkpt lat="52.383795" lon="13.059222">
        <ele>62.921270</ele>
        <time>2026-08-22T18:22:44.863Z</time>
      </trkpt>
      <trkpt lat="52.383902" lon="13.058629">
        <ele>60.608787</ele>
        <time>2026-08-22T18:23:27.447Z</time>
      </trkpt>
      <trkpt lat="52.383825" lon="13.058101">
        <ele>58.578677</ele>
        <time>2026-08-22T18:24:05.088Z</time>
      </trkpt>
      <trkpt lat="52.383184" lon="13.056964">
        <ele>53.049898</ele>
        <time>2026-08-22T18:25:53.523Z</time>
      </trkpt>
      <trkpt lat="52.383244" lon="13.056757">
        <ele>52.250747</ele>
        <time>2026-08-22T18:26:09.295Z</time>
      </trkpt>
      <trkpt lat="52.383291" lon="13.056587">
        <ele>51.599911</ele>
        <time>2026-08-22T18:26:22.113Z</time>
      </trkpt>
      <trkpt lat="52.383308" lon="13.056525">
        <ele>51.362879</ele>
        <time>2026-08-22T18:26:26.814Z</time>
      </trkpt>
      <trkpt lat="52.383464" lon="13.055665">
        <ele>48.234096</ele>
        <time>2026-08-22T18:27:27.469Z</time>
      </trkpt>
      <trkpt lat="52.383513" lon="13.055092">
        <ele>46.309762</ele>
        <time>2026-08-22T18:28:05.965Z</time>
      </trkpt>
      <trkpt lat="52.383524" lon="13.054687">
        <ele>45.820293</ele>
        <time>2026-08-22T18:28:32.371Z</time>
      </trkpt>
      <trkpt lat="52.383479" lon="13.054021">
        <ele>45.011273</ele>
        <time>2026-08-22T18:29:15.103Z</time>
      </trkpt>
      <trkpt lat="52.383453" lon="13.053479">
        <ele>44.354860</ele>
        <time>2026-08-22T18:29:49.188Z</time>
      </trkpt>
      <trkpt lat="52.383424" lon="13.053178">
        <ele>43.986942</ele>
        <time>2026-08-22T18:30:08.127Z</time>
      </trkpt>
      <trkpt lat="52.383402" lon="13.052952">
        <ele>43.710627</ele>
        <time>2026-08-22T18:30:22.365Z</time>
      </trkpt>
      <trkpt lat="52.383314" lon="13.051876">
        <ele>42.368650</ele>
        <time>2026-08-22T18:31:30.258Z</time>
      </trkpt>
      <trkpt lat="52.383295" lon="13.051625">
        <ele>42.039522</ele>
        <time>2026-08-22T18:31:46.226Z</time>
      </trkpt>
      <trkpt lat="52.383278" lon="13.051401">
        <ele>41.745787</ele>
        <time>2026-08-22T18:32:00.534Z</time>
      </trkpt>
      <trkpt lat="52.383225" lon="13.050668">
        <ele>40.785264</ele>
        <time>2026-08-22T18:32:47.343Z</time>
      </trkpt>
      <trkpt lat="52.383168" lon="13.049860">
        <ele>39.726813</ele>
        <time>2026-08-22T18:33:39.669Z</time>
      </trkpt>
      <trkpt lat="52.383154" lon="13.049660">
        <ele>39.464847</ele>
        <time>2026-08-22T18:33:52.728Z</time>
      </trkpt>
      <trkpt lat="52.383094" lon="13.048825">
        <ele>38.456707</ele>
        <time>2026-08-22T18:34:47.357Z</time>
      </trkpt>
      <trkpt lat="52.383067" lon="13.048437">
        <ele>38.021820</ele>
        <time>2026-08-22T18:35:12.593Z</time>
      </trkpt>
      <trkpt lat="52.383056" lon="13.048293">
        <ele>37.860206</ele>
        <time>2026-08-22T18:35:21.936Z</time>
      </trkpt>
      <trkpt lat="52.383010" lon="13.047640">
        <ele>37.128178</ele>
        <time>2026-08-22T18:36:03.924Z</time>
      </trkpt>
      <trkpt lat="52.382976" lon="13.047166">
        <ele>36.596684</ele>
        <time>2026-08-22T18:36:34.052Z</time>
      </trkpt>
      <trkpt lat="52.382938" lon="13.046627">
        <ele>35.992445</ele>
        <time>2026-08-22T18:37:07.891Z</time>
      </trkpt>
      <trkpt lat="52.382902" lon="13.046130">
        <ele>35.704134</ele>
        <time>2026-08-22T18:37:38.675Z</time>
      </trkpt>
      <trkpt lat="52.382793" lon="13.044898">
        <ele>35.809485</ele>
        <time>2026-08-22T18:38:55.681Z</time>
      </trkpt>
      <trkpt lat="52.382736" lon="13.044902">
        <ele>35.817395</ele>
        <time>2026-08-22T18:39:01.598Z</time>
      </trkpt>
      <trkpt lat="52.382667" lon="13.044907">
        <ele>35.826971</ele>
        <time>2026-08-22T18:39:08.684Z</time>
      </trkpt>
      <trkpt lat="52.382169" lon="13.044240">
        <ele>35.916154</ele>
        <time>2026-08-22T18:40:14.248Z</time>
      </trkpt>
      <trkpt lat="52.382142" lon="13.043849">
        <ele>35.905977</ele>
        <time>2026-08-22T18:40:38.339Z</time>
      </trkpt>
      <trkpt lat="52.381984" lon="13.043690">
        <ele>35.856901</ele>
        <time>2026-08-22T18:40:57.114Z</time>
      </trkpt>
      <trkpt lat="52.380273" lon="13.043353">
        <ele>35.575427</ele>
        <time>2026-08-22T18:43:51.265Z</time>
      </trkpt>
      <trkpt lat="52.378428" lon="13.043031">
        <ele>36.736027</ele>
        <time>2026-08-22T18:47:02.246Z</time>
      </trkpt>
      <trkpt lat="52.378209" lon="13.042919">
        <ele>36.996737</ele>
        <time>2026-08-22T18:47:25.964Z</time>
      </trkpt>
      <trkpt lat="52.377987" lon="13.042806">
        <ele>37.260909</ele>
        <time>2026-08-22T18:47:50.119Z</time>
      </trkpt>
      <trkpt lat="52.377630" lon="13.042604">
        <ele>37.690112</ele>
        <time>2026-08-22T18:48:29.592Z</time>
      </trkpt>
      <trkpt lat="52.376651" lon="13.041941">
        <ele>38.659712</ele>
        <time>2026-08-22T18:50:20.708Z</time>
      </trkpt>
      <trkpt lat="52.376112" lon="13.041535">
        <ele>38.963333</ele>
        <time>2026-08-22T18:51:22.086Z</time>
      </trkpt>
      <trkpt lat="52.376270" lon="13.041968">
        <ele>39.120941</ele>
        <time>2026-08-22T18:51:53.022Z</time>
      </trkpt>
      <trkpt lat="52.376112" lon="13.041535">
        <ele>39.278550</ele>
        <time>2026-08-22T18:52:24.078Z</time>
      </trkpt>
      <trkpt lat="52.374952" lon="13.039682">
        <ele>39.878006</ele>
        <time>2026-08-22T18:55:07.401Z</time>
      </trkpt>
      <trkpt lat="52.374347" lon="13.038826">
        <ele>41.536294</ele>
        <time>2026-08-22T18:56:33.153Z</time>
      </trkpt>
      <trkpt lat="52.374163" lon="13.038668">
        <ele>42.313641</ele>
        <time>2026-08-22T18:56:56.478Z</time>
      </trkpt>
      <trkpt lat="52.373971" lon="13.038608">
        <ele>43.045010</ele>
        <time>2026-08-22T18:57:18.858Z</time>
      </trkpt>
      <trkpt lat="52.373369" lon="13.038615">
        <ele>45.297588</ele>
        <time>2026-08-22T18:58:29.015Z</time>
      </trkpt>
      <trkpt lat="52.371632" lon="13.038074">
        <ele>51.458573</ele>
        <time>2026-08-22T19:01:55.057Z</time>
      </trkpt>
      <trkpt lat="52.370917" lon="13.037803">
        <ele>52.442422</ele>
        <time>2026-08-22T19:03:08.845Z</time>
      </trkpt>
      <trkpt lat="52.371048" lon="13.037371">
        <ele>52.032908</ele>
        <time>2026-08-22T19:03:39.234Z</time>
      </trkpt>
      <trkpt lat="52.371118" lon="13.037023">
        <ele>51.721835</ele>
        <time>2026-08-22T19:04:02.589Z</time>
      </trkpt>
      <trkpt lat="52.371131" lon="13.036837">
        <ele>51.562890</ele>
        <time>2026-08-22T19:04:14.521Z</time>
      </trkpt>
      <trkpt lat="52.371085" lon="13.036500">
        <ele>51.269715</ele>
        <time>2026-08-22T19:04:36.676Z</time>
      </trkpt>
      <trkpt lat="52.370885" lon="13.036021">
        <ele>50.777041</ele>
        <time>2026-08-22T19:05:14.040Z</time>
      </trkpt>
      <trkpt lat="52.370638" lon="13.035604">
        <ele>50.283265</ele>
        <time>2026-08-22T19:05:51.119Z</time>
      </trkpt>
      <trkpt lat="52.370240" lon="13.034764">
        <ele>49.375821</ele>
        <time>2026-08-22T19:06:57.835Z</time>
      </trkpt>
      <trkpt lat="52.370009" lon="13.034171">
        <ele>48.775487</ele>
        <time>2026-08-22T19:07:41.940Z</time>
      </trkpt>
      <trkpt lat="52.369677" lon="13.033185">
        <ele>47.826180</ele>
        <time>2026-08-22T19:08:52.801Z</time>
      </trkpt>
      <trkpt lat="52.369264" lon="13.032329">
        <ele>47.101064</ele>
        <time>2026-08-22T19:10:00.677Z</time>
      </trkpt>
      <trkpt lat="52.369031" lon="13.031949">
        <ele>46.743130</ele>
        <time>2026-08-22T19:10:34.018Z</time>
      </trkpt>
      <trkpt lat="52.368803" lon="13.031757">
        <ele>46.464055</ele>
        <time>2026-08-22T19:11:00.042Z</time>
      </trkpt>
      <trkpt lat="52.368578" lon="13.031493">
        <ele>46.162764</ele>
        <time>2026-08-22T19:11:28.248Z</time>
      </trkpt>
      <trkpt lat="52.368390" lon="13.031155">
        <ele>45.738005</ele>
        <time>2026-08-22T19:11:56.876Z</time>
      </trkpt>
      <trkpt lat="52.367968" lon="13.030975">
        <ele>44.127961</ele>
        <time>2026-08-22T19:12:42.243Z</time>
      </trkpt>
      <trkpt lat="52.367509" lon="13.030916">
        <ele>42.428071</ele>
        <time>2026-08-22T19:13:31.813Z</time>
      </trkpt>
      <trkpt lat="52.366992" lon="13.030888">
        <ele>40.518208</ele>
        <time>2026-08-22T19:14:29.279Z</time>
      </trkpt>
      <trkpt lat="52.366726" lon="13.030804">
        <ele>39.518016</ele>
        <time>2026-08-22T19:14:59.177Z</time>
      </trkpt>
      <trkpt lat="52.366592" lon="13.030648">
        <ele>39.001050</ele>
        <time>2026-08-22T19:15:17.280Z</time>
      </trkpt>
      <trkpt lat="52.366510" lon="13.030498">
        <ele>38.661441</ele>
        <time>2026-08-22T19:15:30.731Z</time>
      </trkpt>
      <trkpt lat="52.366395" lon="13.030379">
        <ele>38.285649</ele>
        <time>2026-08-22T19:15:45.529Z</time>
      </trkpt>
      <trkpt lat="52.366212" lon="13.030205">
        <ele>37.701083</ele>
        <time>2026-08-22T19:16:08.517Z</time>
      </trkpt>
      <trkpt lat="52.366057" lon="13.030100">
        <ele>37.237707</ele>
        <time>2026-08-22T19:16:26.537Z</time>
      </trkpt>
      <trkpt lat="52.365965" lon="13.030084">
        <ele>36.982126</ele>
        <time>2026-08-22T19:16:36.398Z</time>
      </trkpt>
      <trkpt lat="52.365847" lon="13.029800">
        <ele>36.402677</ele>
        <time>2026-08-22T19:16:58.626Z</time>
      </trkpt>
      <trkpt lat="52.365845" lon="13.029714">
        <ele>36.257504</ele>
        <time>2026-08-22T19:17:04.047Z</time>
      </trkpt>
      <trkpt lat="52.365730" lon="13.029683">
        <ele>35.935539</ele>
        <time>2026-08-22T19:17:16.285Z</time>
      </trkpt>
      <trkpt lat="52.365538" lon="13.029619">
        <ele>35.394261</ele>
        <time>2026-08-22T19:17:36.586Z</time>
      </trkpt>
      <trkpt lat="52.365534" lon="13.029532">
        <ele>35.247089</ele>
        <time>2026-08-22T19:17:42.208Z</time>
      </trkpt>
      <trkpt lat="52.365298" lon="13.029428">
        <ele>34.571945</ele>
        <time>2026-08-22T19:18:06.882Z</time>
      </trkpt>
      <trkpt lat="52.365534" lon="13.029532">
        <ele>34.279828</ele>
        <time>2026-08-22T19:18:31.608Z</time>
      </trkpt>
      <trkpt lat="52.365538" lon="13.029619">
        <ele>34.272519</ele>
        <time>2026-08-22T19:18:37.173Z</time>
      </trkpt>
      <trkpt lat="52.365730" lon="13.029683">
        <ele>34.245638</ele>
        <time>2026-08-22T19:18:56.881Z</time>
      </trkpt>
      <trkpt lat="52.365845" lon="13.029714">
        <ele>34.229649</ele>
        <time>2026-08-22T19:19:08.623Z</time>
      </trkpt>
      <trkpt lat="52.365852" lon="13.029667">
        <ele>34.225596</ele>
        <time>2026-08-22T19:19:11.662Z</time>
      </trkpt>
      <trkpt lat="52.365872" lon="13.029524">
        <ele>34.213307</ele>
        <time>2026-08-22T19:19:20.712Z</time>
      </trkpt>
      <trkpt lat="52.365233" lon="13.029274">
        <ele>34.123175</ele>
        <time>2026-08-22T19:20:26.783Z</time>
      </trkpt>
      <trkpt lat="52.364641" lon="13.028980">
        <ele>34.130706</ele>
        <time>2026-08-22T19:21:28.957Z</time>
      </trkpt>
      <trkpt lat="52.364003" lon="13.028589">
        <ele>34.621491</ele>
        <time>2026-08-22T19:22:39.757Z</time>
      </trkpt>
      <trkpt lat="52.363741" lon="13.028417">
        <ele>34.824853</ele>
        <time>2026-08-22T19:23:09.069Z</time>
      </trkpt>
      <trkpt lat="52.363180" lon="13.027878">
        <ele>35.293458</ele>
        <time>2026-08-22T19:24:16.053Z</time>
      </trkpt>
      <trkpt lat="52.363011" lon="13.027626">
        <ele>35.378696</ele>
        <time>2026-08-22T19:24:39.478Z</time>
      </trkpt>
      <trkpt lat="52.361596" lon="13.026142">
        <ele>35.719620</ele>
        <time>2026-08-22T19:27:27.675Z</time>
      </trkpt>
      <trkpt lat="52.361171" lon="13.025503">
        <ele>36.023055</ele>
        <time>2026-08-22T19:28:26.405Z</time>
      </trkpt>
      <trkpt lat="52.361196" lon="13.025337">
        <ele>36.077965</ele>
        <time>2026-08-22T19:28:37.012Z</time>
      </trkpt>
      <trkpt lat="52.361192" lon="13.025310">
        <ele>36.086888</ele>
        <time>2026-08-22T19:28:38.762Z</time>
      </trkpt>
      <trkpt lat="52.361196" lon="13.025337">
        <ele>36.095811</ele>
        <time>2026-08-22T19:28:40.500Z</time>
      </trkpt>
      <trkpt lat="52.361171" lon="13.025503">
        <ele>36.150722</ele>
        <time>2026-08-22T19:28:51.105Z</time>
      </trkpt>
      <trkpt lat="52.361043" lon="13.025283">
        <ele>36.248311</ele>
        <time>2026-08-22T19:29:10.063Z</time>
      </trkpt>
      <trkpt lat="52.360000" lon="13.023458">
        <ele>37.487680</ele>
        <time>2026-08-22T19:31:46.813Z</time>
      </trkpt>
      <trkpt lat="52.359647" lon="13.022843">
        <ele>38.052415</ele>
        <time>2026-08-22T19:32:39.426Z</time>
      </trkpt>
      <trkpt lat="52.359591" lon="13.022748">
        <ele>38.140763</ele>
        <time>2026-08-22T19:32:47.970Z</time>
      </trkpt>
      <trkpt lat="52.359476" lon="13.022552">
        <ele>38.322630</ele>
        <time>2026-08-22T19:33:05.568Z</time>
      </trkpt>
      <trkpt lat="52.359249" lon="13.022158">
        <ele>38.753245</ele>
        <time>2026-08-22T19:33:41.808Z</time>
      </trkpt>
      <trkpt lat="52.359185" lon="13.022201">
        <ele>38.906958</ele>
        <time>2026-08-22T19:33:49.284Z</time>
      </trkpt>
      <trkpt lat="52.359100" lon="13.022275">
        <ele>39.120863</ele>
        <time>2026-08-22T19:33:59.875Z</time>
      </trkpt>
      <trkpt lat="52.359024" lon="13.022230">
        <ele>39.300436</ele>
        <time>2026-08-22T19:34:08.556Z</time>
      </trkpt>
      <trkpt lat="52.358986" lon="13.022082">
        <ele>39.518300</ele>
        <time>2026-08-22T19:34:18.945Z</time>
      </trkpt>
      <trkpt lat="52.358693" lon="13.022341">
        <ele>40.258155</ele>
        <time>2026-08-22T19:34:53.457Z</time>
      </trkpt>
      <trkpt lat="52.358458" lon="13.022507">
        <ele>40.826841</ele>
        <time>2026-08-22T19:35:20.393Z</time>
      </trkpt>
      <trkpt lat="52.358016" lon="13.022355">
        <ele>41.830389</ele>
        <time>2026-08-22T19:36:10.363Z</time>
      </trkpt>
      <trkpt lat="52.357902" lon="13.022205">
        <ele>42.155349</ele>
        <time>2026-08-22T19:36:26.739Z</time>
      </trkpt>
      <trkpt lat="52.357806" lon="13.022079">
        <ele>42.428732</ele>
        <time>2026-08-22T19:36:40.498Z</time>
      </trkpt>
      <trkpt lat="52.357357" lon="13.021862">
        <ele>43.473851</ele>
        <time>2026-08-22T19:37:31.598Z</time>
      </trkpt>
      <trkpt lat="52.356332" lon="13.021285">
        <ele>45.896041</ele>
        <time>2026-08-22T19:39:29.888Z</time>
      </trkpt>
      <trkpt lat="52.355942" lon="13.021139">
        <ele>46.581848</ele>
        <time>2026-08-22T19:40:11.802Z</time>
      </trkpt>
      <trkpt lat="52.355210" lon="13.021158">
        <ele>46.023890</ele>
        <time>2026-08-22T19:41:25.691Z</time>
      </trkpt>
      <trkpt lat="52.355004" lon="13.020967">
        <ele>45.843463</ele>
        <time>2026-08-22T19:41:49.821Z</time>
      </trkpt>
      <trkpt lat="52.354314" lon="13.020401">
        <ele>45.253651</ele>
        <time>2026-08-22T19:43:10.490Z</time>
      </trkpt>
      <trkpt lat="52.353824" lon="13.019339">
        <ele>44.518370</ele>
        <time>2026-08-22T19:44:35.971Z</time>
      </trkpt>
      <trkpt lat="52.353758" lon="13.018961">
        <ele>44.301180</ele>
        <time>2026-08-22T19:45:00.344Z</time>
      </trkpt>
      <trkpt lat="52.353760" lon="13.018500">
        <ele>44.046496</ele>
        <time>2026-08-22T19:45:28.871Z</time>
      </trkpt>
      <trkpt lat="52.353254" lon="13.017928">
        <ele>43.922224</ele>
        <time>2026-08-22T19:46:31.875Z</time>
      </trkpt>
      <trkpt lat="52.352980" lon="13.017541">
        <ele>44.557870</ele>
        <time>2026-08-22T19:47:11.030Z</time>
      </trkpt>
      <trkpt lat="52.352827" lon="13.017259">
        <ele>44.962554</ele>
        <time>2026-08-22T19:47:36.811Z</time>
      </trkpt>
      <trkpt lat="52.352583" lon="13.016724">
        <ele>45.678918</ele>
        <time>2026-08-22T19:48:22.393Z</time>
      </trkpt>
      <trkpt lat="52.351873" lon="13.015981">
        <ele>46.699659</ele>
        <time>2026-08-22T19:49:50.321Z</time>
      </trkpt>
      <trkpt lat="52.351702" lon="13.015642">
        <ele>46.573587</ele>
        <time>2026-08-22T19:50:17.511Z</time>
      </trkpt>
      <trkpt lat="52.351349" lon="13.014440">
        <ele>46.191139</ele>
        <time>2026-08-22T19:51:41.109Z</time>
      </trkpt>
      <trkpt lat="52.351154" lon="13.014163">
        <ele>46.069937</ele>
        <time>2026-08-22T19:52:07.883Z</time>
      </trkpt>
      <trkpt lat="52.351012" lon="13.014038">
        <ele>45.994248</ele>
        <time>2026-08-22T19:52:24.768Z</time>
      </trkpt>
      <trkpt lat="52.350782" lon="13.013835">
        <ele>46.556751</ele>
        <time>2026-08-22T19:52:51.186Z</time>
      </trkpt>
      <trkpt lat="52.350636" lon="13.013785">
        <ele>47.082175</ele>
        <time>2026-08-22T19:53:06.622Z</time>
      </trkpt>
      <trkpt lat="52.350427" lon="13.013875">
        <ele>47.843429</ele>
        <time>2026-08-22T19:53:29.776Z</time>
      </trkpt>
      <trkpt lat="52.350246" lon="13.014131">
        <ele>48.685999</ele>
        <time>2026-08-22T19:53:56.892Z</time>
      </trkpt>
      <trkpt lat="52.350147" lon="13.014205">
        <ele>49.069361</ele>
        <time>2026-08-22T19:54:09.394Z</time>
      </trkpt>
      <trkpt lat="52.350088" lon="13.014241">
        <ele>49.291157</ele>
        <time>2026-08-22T19:54:16.949Z</time>
      </trkpt>
      <trkpt lat="52.350079" lon="13.014239">
        <ele>49.323151</ele>
        <time>2026-08-22T19:54:18.033Z</time>
      </trkpt>
      <trkpt lat="52.350088" lon="13.014241">
        <ele>49.355145</ele>
        <time>2026-08-22T19:54:19.122Z</time>
      </trkpt>
      <trkpt lat="52.350147" lon="13.014205">
        <ele>49.576941</ele>
        <time>2026-08-22T19:54:26.529Z</time>
      </trkpt>
      <trkpt lat="52.350130" lon="13.014548">
        <ele>50.317397</ele>
        <time>2026-08-22T19:54:51.477Z</time>
      </trkpt>
      <trkpt lat="52.350020" lon="13.015544">
        <ele>52.509709</ele>
        <time>2026-08-22T19:56:05.697Z</time>
      </trkpt>
      <trkpt lat="52.349857" lon="13.016010">
        <ele>53.745859</ele>
        <time>2026-08-22T19:56:45.240Z</time>
      </trkpt>
      <trkpt lat="52.349596" lon="13.016422">
        <ele>55.112226</ele>
        <time>2026-08-22T19:57:28.037Z</time>
      </trkpt>
      <trkpt lat="52.349736" lon="13.016636">
        <ele>55.834058</ele>
        <time>2026-08-22T19:57:49.995Z</time>
      </trkpt>
      <trkpt lat="52.349847" lon="13.016994">
        <ele>56.758257</ele>
        <time>2026-08-22T19:58:17.655Z</time>
      </trkpt>
      <trkpt lat="52.349199" lon="13.018648">
        <ele>59.218753</ele>
        <time>2026-08-22T20:00:24.879Z</time>
      </trkpt>
      <trkpt lat="52.348152" lon="13.021320">
        <ele>58.969996</ele>
        <time>2026-08-22T20:03:40.922Z</time>
      </trkpt>
      <trkpt lat="52.347521" lon="13.022948">
        <ele>58.129648</ele>
        <time>2026-08-22T20:05:41.486Z</time>
      </trkpt>
      <trkpt lat="52.347086" lon="13.023980">
        <ele>58.035165</ele>
        <time>2026-08-22T20:06:58.682Z</time>
      </trkpt>
      <trkpt lat="52.347130" lon="13.025203">
        <ele>57.942846</ele>
        <time>2026-08-22T20:08:14.545Z</time>
      </trkpt>
      <trkpt lat="52.347250" lon="13.028524">
        <ele>58.143094</ele>
        <time>2026-08-22T20:11:39.665Z</time>
      </trkpt>
      <trkpt lat="52.347458" lon="13.031052">
        <ele>57.326780</ele>
        <time>2026-08-22T20:14:18.314Z</time>
      </trkpt>
      <trkpt lat="52.349749" lon="13.033584">
        <ele>57.011841</ele>
        <time>2026-08-22T20:18:55.204Z</time>
      </trkpt>
      <trkpt lat="52.351219" lon="13.035285">
        <ele>56.689884</ele>
        <time>2026-08-22T20:21:56.671Z</time>
      </trkpt>
      <trkpt lat="52.351949" lon="13.036082">
        <ele>56.559723</ele>
        <time>2026-08-22T20:23:24.528Z</time>
      </trkpt>
      <trkpt lat="52.352028" lon="13.036167">
        <ele>56.545699</ele>
        <time>2026-08-22T20:23:34.051Z</time>
      </trkpt>
      <trkpt lat="52.353177" lon="13.038615">
        <ele>56.561042</ele>
        <time>2026-08-22T20:26:43.790Z</time>
      </trkpt>
      <trkpt lat="52.353782" lon="13.039841">
        <ele>55.890279</ele>
        <time>2026-08-22T20:28:21.905Z</time>
      </trkpt>
      <trkpt lat="52.354900" lon="13.042142">
        <ele>54.646465</ele>
        <time>2026-08-22T20:31:24.747Z</time>
      </trkpt>
      <trkpt lat="52.355485" lon="13.043386">
        <ele>53.887305</ele>
        <time>2026-08-22T20:33:01.333Z</time>
      </trkpt>
      <trkpt lat="52.355390" lon="13.043588">
        <ele>53.686778</ele>
        <time>2026-08-22T20:33:17.204Z</time>
      </trkpt>
      <trkpt lat="52.355131" lon="13.044208">
        <ele>53.095962</ele>
        <time>2026-08-22T20:34:04.509Z</time>
      </trkpt>
      <trkpt lat="52.355128" lon="13.044312">
        <ele>53.014069</ele>
        <time>2026-08-22T20:34:11.101Z</time>
      </trkpt>
      <trkpt lat="52.355244" lon="13.044325">
        <ele>52.864333</ele>
        <time>2026-08-22T20:34:23.151Z</time>
      </trkpt>
      <trkpt lat="52.355395" lon="13.044316">
        <ele>52.669745</ele>
        <time>2026-08-22T20:34:38.877Z</time>
      </trkpt>
      <trkpt lat="52.356075" lon="13.044384">
        <ele>51.792401</ele>
        <time>2026-08-22T20:35:49.628Z</time>
      </trkpt>
      <trkpt lat="52.356259" lon="13.044404">
        <ele>51.951582</ele>
        <time>2026-08-22T20:36:08.533Z</time>
      </trkpt>
      <trkpt lat="52.356225" lon="13.044552">
        <ele>52.044264</ele>
        <time>2026-08-22T20:36:18.374Z</time>
      </trkpt>
      <trkpt lat="52.356149" lon="13.044695">
        <ele>52.155374</ele>
        <time>2026-08-22T20:36:30.098Z</time>
      </trkpt>
      <trkpt lat="52.356151" lon="13.044770">
        <ele>52.199377</ele>
        <time>2026-08-22T20:36:34.771Z</time>
      </trkpt>
      <trkpt lat="52.356154" lon="13.044866">
        <ele>52.255720</ele>
        <time>2026-08-22T20:36:40.684Z</time>
      </trkpt>
      <trkpt lat="52.356174" lon="13.045014">
        <ele>52.344567</ele>
        <time>2026-08-22T20:36:49.954Z</time>
      </trkpt>
      <trkpt lat="52.356887" lon="13.046688">
        <ele>53.586765</ele>
        <time>2026-08-22T20:39:03.021Z</time>
      </trkpt>
      <trkpt lat="52.357217" lon="13.048060">
        <ele>55.676440</ele>
        <time>2026-08-22T20:40:41.358Z</time>
      </trkpt>
      <trkpt lat="52.357644" lon="13.049221">
        <ele>57.597035</ele>
        <time>2026-08-22T20:42:10.919Z</time>
      </trkpt>
      <trkpt lat="52.357742" lon="13.049856">
        <ele>58.337792</ele>
        <time>2026-08-22T20:42:53.944Z</time>
      </trkpt>
      <trkpt lat="52.357758" lon="13.050573">
        <ele>59.128593</ele>
        <time>2026-08-22T20:43:41.106Z</time>
      </trkpt>
      <trkpt lat="52.357830" lon="13.051384">
        <ele>60.031867</ele>
        <time>2026-08-22T20:44:34.767Z</time>
      </trkpt>
      <trkpt lat="52.357779" lon="13.052170">
        <ele>60.903066</ele>
        <time>2026-08-22T20:45:26.089Z</time>
      </trkpt>
      <trkpt lat="52.357608" lon="13.054028">
        <ele>59.980208</ele>
        <time>2026-08-22T20:47:21.707Z</time>
      </trkpt>
      <trkpt lat="52.357569" lon="13.055031">
        <ele>59.467106</ele>
        <time>2026-08-22T20:48:26.159Z</time>
      </trkpt>
      <trkpt lat="52.357343" lon="13.057735">
        <ele>54.104576</ele>
        <time>2026-08-22T20:51:26.970Z</time>
      </trkpt>
      <trkpt lat="52.357317" lon="13.057914">
        <ele>53.734593</ele>
        <time>2026-08-22T20:51:38.723Z</time>
      </trkpt>
      <trkpt lat="52.357173" lon="13.058390">
        <ele>53.951758</ele>
        <time>2026-08-22T20:52:12.094Z</time>
      </trkpt>
      <trkpt lat="52.357071" lon="13.058839">
        <ele>54.469679</ele>
        <time>2026-08-22T20:52:41.521Z</time>
      </trkpt>
      <trkpt lat="52.356952" lon="13.060780">
        <ele>56.578706</ele>
        <time>2026-08-22T20:54:52.621Z</time>
      </trkpt>
      <trkpt lat="52.358657" lon="13.062770">
        <ele>68.460506</ele>
        <time>2026-08-22T20:59:03.092Z</time>
      </trkpt>
      <trkpt lat="52.359966" lon="13.064260">
        <ele>81.018740</ele>
        <time>2026-08-22T21:02:27.607Z</time>
      </trkpt>
      <trkpt lat="52.359954" lon="13.064290">
        <ele>81.179935</ele>
        <time>2026-08-22T21:02:30.380Z</time>
      </trkpt>
      <trkpt lat="52.359999" lon="13.064399">
        <ele>81.771322</ele>
        <time>2026-08-22T21:02:40.837Z</time>
      </trkpt>
      <trkpt lat="52.360184" lon="13.064620">
        <ele>83.456788</ele>
        <time>2026-08-22T21:03:10.800Z</time>
      </trkpt>
      <trkpt lat="52.360204" lon="13.064643">
        <ele>83.636667</ele>
        <time>2026-08-22T21:03:13.977Z</time>
      </trkpt>
      <trkpt lat="52.360184" lon="13.064754">
        <ele>84.156854</ele>
        <time>2026-08-22T21:03:23.315Z</time>
      </trkpt>
      <trkpt lat="52.360212" lon="13.064829">
        <ele>84.551968</ele>
        <time>2026-08-22T21:03:30.369Z</time>
      </trkpt>
      <trkpt lat="52.360344" lon="13.064834">
        <ele>85.523770</ele>
        <time>2026-08-22T21:03:47.703Z</time>
      </trkpt>
      <trkpt lat="52.360409" lon="13.064935">
        <ele>86.183293</ele>
        <time>2026-08-22T21:03:59.397Z</time>
      </trkpt>
      <trkpt lat="52.360452" lon="13.065112">
        <ele>87.039511</ele>
        <time>2026-08-22T21:04:14.539Z</time>
      </trkpt>
      <trkpt lat="52.360496" lon="13.065120">
        <ele>87.365349</ele>
        <time>2026-08-22T21:04:20.280Z</time>
      </trkpt>
      <trkpt lat="52.360543" lon="13.065179">
        <ele>87.801231</ele>
        <time>2026-08-22T21:04:27.914Z</time>
      </trkpt>
      <trkpt lat="52.360530" lon="13.065536">
        <ele>89.408719</ele>
        <time>2026-08-22T21:04:55.830Z</time>
      </trkpt>
      <trkpt lat="52.360579" lon="13.065818">
        <ele>90.726557</ele>
        <time>2026-08-22T21:05:18.488Z</time>
      </trkpt>
      <trkpt lat="52.360594" lon="13.065905">
        <ele>91.132889</ele>
        <time>2026-08-22T21:05:25.319Z</time>
      </trkpt>
      <trkpt lat="52.360684" lon="13.066202">
        <ele>92.623151</ele>
        <time>2026-08-22T21:05:49.871Z</time>
      </trkpt>
      <trkpt lat="52.360883" lon="13.066422">
        <ele>93.948191</ele>
        <time>2026-08-22T21:06:17.693Z</time>
      </trkpt>
      <trkpt lat="52.361122" lon="13.066607">
        <ele>93.462476</ele>
        <time>2026-08-22T21:06:47.059Z</time>
      </trkpt>
      <trkpt lat="52.361445" lon="13.066683">
        <ele>92.862920</ele>
        <time>2026-08-22T21:07:21.430Z</time>
      </trkpt>
      <trkpt lat="52.361654" lon="13.066929">
        <ele>92.390009</ele>
        <time>2026-08-22T21:07:47.950Z</time>
      </trkpt>
      <trkpt lat="52.362278" lon="13.067406">
        <ele>91.124741</ele>
        <time>2026-08-22T21:09:04.341Z</time>
      </trkpt>
      <trkpt lat="52.362395" lon="13.067615">
        <ele>90.806620</ele>
        <time>2026-08-22T21:09:24.211Z</time>
      </trkpt>
      <trkpt lat="52.362477" lon="13.067881">
        <ele>90.069814</ele>
        <time>2026-08-22T21:09:45.094Z</time>
      </trkpt>
      <trkpt lat="52.362550" lon="13.068500">
        <ele>88.265402</ele>
        <time>2026-08-22T21:10:28.558Z</time>
      </trkpt>
      <trkpt lat="52.362670" lon="13.069105">
        <ele>86.444749</ele>
        <time>2026-08-22T21:11:11.746Z</time>
      </trkpt>
      <trkpt lat="52.363111" lon="13.069021">
        <ele>84.363862</ele>
        <time>2026-08-22T21:12:00.325Z</time>
      </trkpt>
      <trkpt lat="52.363535" lon="13.068772">
        <ele>82.271549</ele>
        <time>2026-08-22T21:12:47.967Z</time>
      </trkpt>
      <trkpt lat="52.363777" lon="13.068546">
        <ele>81.469434</ele>
        <time>2026-08-22T21:13:16.662Z</time>
      </trkpt>
      <trkpt lat="52.364293" lon="13.068053">
        <ele>79.749377</ele>
        <time>2026-08-22T21:14:18.760Z</time>
      </trkpt>
      <trkpt lat="52.364421" lon="13.067904">
        <ele>79.297214</ele>
        <time>2026-08-22T21:14:35.380Z</time>
      </trkpt>
      <trkpt lat="52.364999" lon="13.067980">
        <ele>77.627655</ele>
        <time>2026-08-22T21:15:37.689Z</time>
      </trkpt>
      <trkpt lat="52.365959" lon="13.068299">
        <ele>74.055461</ele>
        <time>2026-08-22T21:17:23.628Z</time>
      </trkpt>
      <trkpt lat="52.366623" lon="13.067725">
        <ele>71.191795</ele>
        <time>2026-08-22T21:18:44.948Z</time>
      </trkpt>
      <trkpt lat="52.366954" lon="13.067562">
        <ele>69.981143</ele>
        <time>2026-08-22T21:19:22.065Z</time>
      </trkpt>
      <trkpt lat="52.367396" lon="13.067438">
        <ele>68.743619</ele>
        <time>2026-08-22T21:20:09.944Z</time>
      </trkpt>
      <trkpt lat="52.367471" lon="13.067382">
        <ele>68.516151</ele>
        <time>2026-08-22T21:20:18.640Z</time>
      </trkpt>
      <trkpt lat="52.368155" lon="13.066762">
        <ele>66.358746</ele>
        <time>2026-08-22T21:21:41.261Z</time>
      </trkpt>
      <trkpt lat="52.369956" lon="13.065948">
        <ele>63.353745</ele>
        <time>2026-08-22T21:24:55.221Z</time>
      </trkpt>
      <trkpt lat="52.371356" lon="13.066266">
        <ele>63.756771</ele>
        <time>2026-08-22T21:27:18.840Z</time>
      </trkpt>
      <trkpt lat="52.372185" lon="13.066395">
        <ele>64.497655</ele>
        <time>2026-08-22T21:28:46.578Z</time>
      </trkpt>
      <trkpt lat="52.374130" lon="13.066804">
        <ele>67.578923</ele>
        <time>2026-08-22T21:32:15.011Z</time>
      </trkpt>
      <trkpt lat="52.375680" lon="13.067078">
        <ele>69.199938</ele>
        <time>2026-08-22T21:34:55.889Z</time>
      </trkpt>
      <trkpt lat="52.376023" lon="13.067172">
        <ele>69.704031</ele>
        <time>2026-08-22T21:35:31.206Z</time>
      </trkpt>
      <trkpt lat="52.376507" lon="13.067276">
        <ele>70.411606</ele>
        <time>2026-08-22T21:36:21.457Z</time>
      </trkpt>
      <trkpt lat="52.376947" lon="13.067239">
        <ele>71.050231</ele>
        <time>2026-08-22T21:37:07.428Z</time>
      </trkpt>
      <trkpt lat="52.377868" lon="13.067095">
        <ele>73.131705</ele>
        <time>2026-08-22T21:38:48.844Z</time>
      </trkpt>
      <trkpt lat="52.378568" lon="13.066994">
        <ele>75.283961</ele>
        <time>2026-08-22T21:40:09.606Z</time>
      </trkpt>
      <trkpt lat="52.379119" lon="13.066915">
        <ele>76.978011</ele>
        <time>2026-08-22T21:41:11.939Z</time>
      </trkpt>
      <trkpt lat="52.380970" lon="13.066686">
        <ele>77.779397</ele>
        <time>2026-08-22T21:44:20.725Z</time>
      </trkpt>
      <trkpt lat="52.381618" lon="13.066599">
        <ele>75.865542</ele>
        <time>2026-08-22T21:45:29.669Z</time>
      </trkpt>
      <trkpt lat="52.382053" lon="13.066664">
        <ele>74.520002</ele>
        <time>2026-08-22T21:46:17.141Z</time>
      </trkpt>
      <trkpt lat="52.383122" lon="13.066963">
        <ele>71.603099</ele>
        <time>2026-08-22T21:48:14.005Z</time>
      </trkpt>
      <trkpt lat="52.383160" lon="13.067016">
        <ele>71.510387</ele>
        <time>2026-08-22T21:48:19.250Z</time>
      </trkpt>
      <trkpt lat="52.383527" lon="13.066995">
        <ele>70.828169</ele>
        <time>2026-08-22T21:48:57.493Z</time>
      </trkpt>
      <trkpt lat="52.384175" lon="13.066891">
        <ele>69.618570</ele>
        <time>2026-08-22T21:50:03.916Z</time>
      </trkpt>
      <trkpt lat="52.384435" lon="13.066817">
        <ele>69.128315</ele>
        <time>2026-08-22T21:50:30.672Z</time>
      </trkpt>
      <trkpt lat="52.384725" lon="13.066723">
        <ele>68.322876</ele>
        <time>2026-08-22T21:51:00.861Z</time>
      </trkpt>
      <trkpt lat="52.384980" lon="13.066596">
        <ele>67.438930</ele>
        <time>2026-08-22T21:51:28.439Z</time>
      </trkpt>
      <trkpt lat="52.385222" lon="13.066433">
        <ele>66.571134</ele>
        <time>2026-08-22T21:51:55.864Z</time>
      </trkpt>
      <trkpt lat="52.385326" lon="13.066354">
        <ele>66.190938</ele>
        <time>2026-08-22T21:52:07.974Z</time>
      </trkpt>
      <trkpt lat="52.385747" lon="13.065938">
        <ele>64.560369</ele>
        <time>2026-08-22T21:53:01.078Z</time>
      </trkpt>
      <trkpt lat="52.385816" lon="13.065865">
        <ele>64.287960</ele>
        <time>2026-08-22T21:53:10.134Z</time>
      </trkpt>
      <trkpt lat="52.386002" lon="13.065648">
        <ele>63.530660</ele>
        <time>2026-08-22T21:53:35.405Z</time>
      </trkpt>
      <trkpt lat="52.386295" lon="13.065425">
        <ele>62.051661</ele>
        <time>2026-08-22T21:54:11.231Z</time>
      </trkpt>
      <trkpt lat="52.386405" lon="13.065384">
        <ele>61.360453</ele>
        <time>2026-08-22T21:54:23.758Z</time>
      </trkpt>
      <trkpt lat="52.386571" lon="13.065360">
        <ele>60.339392</ele>
        <time>2026-08-22T21:54:42.225Z</time>
      </trkpt>
      <trkpt lat="52.386665" lon="13.065363">
        <ele>59.763329</ele>
        <time>2026-08-22T21:54:52.782Z</time>
      </trkpt>
      <trkpt lat="52.386711" lon="13.065367">
        <ele>59.481083</ele>
        <time>2026-08-22T21:54:57.854Z</time>
      </trkpt>
      <trkpt lat="52.386798" lon="13.065375">
        <ele>58.947181</ele>
        <time>2026-08-22T21:55:07.650Z</time>
      </trkpt>
      <trkpt lat="52.386947" lon="13.065389">
        <ele>58.032734</ele>
        <time>2026-08-22T21:55:24.364Z</time>
      </trkpt>
      <trkpt lat="52.386986" lon="13.065392">
        <ele>57.793511</ele>
        <time>2026-08-22T21:55:28.854Z</time>
      </trkpt>
      <trkpt lat="52.387156" lon="13.065405">
        <ele>56.750760</ele>
        <time>2026-08-22T21:55:48.005Z</time>
      </trkpt>
      <trkpt lat="52.387175" lon="13.065407">
        <ele>56.634104</ele>
        <time>2026-08-22T21:55:50.178Z</time>
      </trkpt>
      <trkpt lat="52.387231" lon="13.065411">
        <ele>56.290656</ele>
        <time>2026-08-22T21:55:56.474Z</time>
      </trkpt>
      <trkpt lat="52.387266" lon="13.065414">
        <ele>56.075913</ele>
        <time>2026-08-22T21:56:00.469Z</time>
      </trkpt>
      <trkpt lat="52.387326" lon="13.065419">
        <ele>55.707808</ele>
        <time>2026-08-22T21:56:07.234Z</time>
      </trkpt>
      <trkpt lat="52.387646" lon="13.065444">
        <ele>53.744888</ele>
        <time>2026-08-22T21:56:43.663Z</time>
      </trkpt>
      <trkpt lat="52.387744" lon="13.065452">
        <ele>53.143681</ele>
        <time>2026-08-22T21:56:54.869Z</time>
      </trkpt>
      <trkpt lat="52.387838" lon="13.065459">
        <ele>52.567133</ele>
        <time>2026-08-22T21:57:05.627Z</time>
      </trkpt>
      <trkpt lat="52.388090" lon="13.065479">
        <ele>50.961927</ele>
        <time>2026-08-22T21:57:34.326Z</time>
      </trkpt>
      <trkpt lat="52.388323" lon="13.065498">
        <ele>49.438079</ele>
        <time>2026-08-22T21:58:00.750Z</time>
      </trkpt>
      <trkpt lat="52.388362" lon="13.065501">
        <ele>49.183050</ele>
        <time>2026-08-22T21:58:05.172Z</time>
      </trkpt>
      <trkpt lat="52.388494" lon="13.065511">
        <ele>48.319900</ele>
        <time>2026-08-22T21:58:20.325Z</time>
      </trkpt>
      <trkpt lat="52.388775" lon="13.065534">
        <ele>46.482110</ele>
        <time>2026-08-22T21:58:52.625Z</time>
      </trkpt>
      <trkpt lat="52.388824" lon="13.065537">
        <ele>46.161817</ele>
        <time>2026-08-22T21:58:58.175Z</time>
      </trkpt>
      <trkpt lat="52.388856" lon="13.065540">
        <ele>45.952450</ele>
        <time>2026-08-22T21:59:01.901Z</time>
      </trkpt>
      <trkpt lat="52.389103" lon="13.065565">
        <ele>44.335962</ele>
        <time>2026-08-22T21:59:30.236Z</time>
      </trkpt>
      <trkpt lat="52.389138" lon="13.065572">
        <ele>44.105644</ele>
        <time>2026-08-22T21:59:34.305Z</time>
      </trkpt>
      <trkpt lat="52.389328" lon="13.065602">
        <ele>42.858809</ele>
        <time>2026-08-22T21:59:56.138Z</time>
      </trkpt>
      <trkpt lat="52.389375" lon="13.065609">
        <ele>42.550538</ele>
        <time>2026-08-22T22:00:01.514Z</time>
      </trkpt>
      <trkpt lat="52.389553" lon="13.065637">
        <ele>41.382490</ele>
        <time>2026-08-22T22:00:21.776Z</time>
      </trkpt>
      <trkpt lat="52.389580" lon="13.065641">
        <ele>41.205406</ele>
        <time>2026-08-22T22:00:24.745Z</time>
      </trkpt>
      <trkpt lat="52.389609" lon="13.065648">
        <ele>41.013933</ele>
        <time>2026-08-22T22:00:27.951Z</time>
      </trkpt>
      <trkpt lat="52.389667" lon="13.065756">
        <ele>40.440441</ele>
        <time>2026-08-22T22:00:37.807Z</time>
      </trkpt>
      <trkpt lat="52.389727" lon="13.065598">
        <ele>40.000581</ele>
        <time>2026-08-22T22:00:50.311Z</time>
      </trkpt>
      <trkpt lat="52.389751" lon="13.065534">
        <ele>39.892689</ele>
        <time>2026-08-22T22:00:55.365Z</time>
      </trkpt>
      <trkpt lat="52.389762" lon="13.065504">
        <ele>39.842421</ele>
        <time>2026-08-22T22:00:57.633Z</time>
      </trkpt>
      <trkpt lat="52.389972" lon="13.065070">
        <ele>39.046902</ele>
        <time>2026-08-22T22:01:34.107Z</time>
      </trkpt>
      <trkpt lat="52.390140" lon="13.064787">
        <ele>38.479842</ele>
        <time>2026-08-22T22:01:59.753Z</time>
      </trkpt>
      <trkpt lat="52.390303" lon="13.064529">
        <ele>37.946470</ele>
        <time>2026-08-22T22:02:23.289Z</time>
      </trkpt>
      <trkpt lat="52.390445" lon="13.064400">
        <ele>37.564346</ele>
        <time>2026-08-22T22:02:40.024Z</time>
      </trkpt>
      <trkpt lat="52.390535" lon="13.064320">
        <ele>37.323371</ele>
        <time>2026-08-22T22:02:50.393Z</time>
      </trkpt>
      <trkpt lat="52.390604" lon="13.064221">
        <ele>37.107523</ele>
        <time>2026-08-22T22:02:59.722Z</time>
      </trkpt>
      <trkpt lat="52.390642" lon="13.064166">
        <ele>36.988197</ele>
        <time>2026-08-22T22:03:04.863Z</time>
      </trkpt>
      <trkpt lat="52.390772" lon="13.063935">
        <ele>36.536877</ele>
        <time>2026-08-22T22:03:24.250Z</time>
      </trkpt>
      <trkpt lat="52.390871" lon="13.063774">
        <ele>36.208608</ele>
        <time>2026-08-22T22:03:38.365Z</time>
      </trkpt>
      <trkpt lat="52.391011" lon="13.063631">
        <ele>35.902187</ele>
        <time>2026-08-22T22:03:55.008Z</time>
      </trkpt>
      <trkpt lat="52.391166" lon="13.063555">
        <ele>35.787344</ele>
        <time>2026-08-22T22:04:11.216Z</time>
      </trkpt>
      <trkpt lat="52.391498" lon="13.063481">
        <ele>35.549511</ele>
        <time>2026-08-22T22:04:45.026Z</time>
      </trkpt>
      <trkpt lat="52.391982" lon="13.063347">
        <ele>35.201086</ele>
        <time>2026-08-22T22:05:35.240Z</time>
      </trkpt>
      <trkpt lat="52.392286" lon="13.063104">
        <ele>34.960994</ele>
        <time>2026-08-22T22:06:09.688Z</time>
      </trkpt>
      <trkpt lat="52.392347" lon="13.063037">
        <ele>34.908868</ele>
        <time>2026-08-22T22:06:17.128Z</time>
      </trkpt>
      <trkpt lat="52.392280" lon="13.062852">
        <ele>34.815681</ele>
        <time>2026-08-22T22:06:30.543Z</time>
      </trkpt>
      <trkpt lat="52.392215" lon="13.062719">
        <ele>34.741871</ele>
        <time>2026-08-22T22:06:41.216Z</time>
      </trkpt>
      <trkpt lat="52.392123" lon="13.062687">
        <ele>34.675112</ele>
        <time>2026-08-22T22:06:50.777Z</time>
      </trkpt>
      <trkpt lat="52.392073" lon="13.062731">
        <ele>34.662918</ele>
        <time>2026-08-22T22:06:56.610Z</time>
      </trkpt>
      <trkpt lat="52.392041" lon="13.062814">
        <ele>34.666376</ele>
        <time>2026-08-22T22:07:02.713Z</time>
      </trkpt>
      <trkpt lat="52.392007" lon="13.063141">
        <ele>34.678058</ele>
        <time>2026-08-22T22:07:23.298Z</time>
      </trkpt>
      <trkpt lat="52.391968" lon="13.063294">
        <ele>34.683897</ele>
        <time>2026-08-22T22:07:33.502Z</time>
      </trkpt>
      <trkpt lat="52.391969" lon="13.064086">
        <ele>34.711789</ele>
        <time>2026-08-22T22:08:21.856Z</time>
      </trkpt>
      <trkpt lat="52.392042" lon="13.064176">
        <ele>34.717061</ele>
        <time>2026-08-22T22:08:31.239Z</time>
      </trkpt>
      <trkpt lat="52.392044" lon="13.064289">
        <ele>34.721043</ele>
        <time>2026-08-22T22:08:38.337Z</time>
      </trkpt>
      <trkpt lat="52.392001" lon="13.064293">
        <ele>34.723528</ele>
        <time>2026-08-22T22:08:42.779Z</time>
      </trkpt>
      <trkpt lat="52.392015" lon="13.064567">
        <ele>34.733212</ele>
        <time>2026-08-22T22:09:00.129Z</time>
      </trkpt>
      <trkpt lat="52.391938" lon="13.064572">
        <ele>34.737659</ele>
        <time>2026-08-22T22:09:07.990Z</time>
      </trkpt>
      <trkpt lat="52.392000" lon="13.065651">
        <ele>34.764604</ele>
        <time>2026-08-22T22:10:15.072Z</time>
      </trkpt>
      <trkpt lat="52.392007" lon="13.066482">
        <ele>34.764604</ele>
        <time>2026-08-22T22:11:06.191Z</time>
      </trkpt>
      <trkpt lat="52.391985" lon="13.067057">
        <ele>34.764604</ele>
        <time>2026-08-22T22:11:41.845Z</time>
      </trkpt>
    </trkseg>
  </trk>
</gpx>